createdAt,value
2023-01-18T00:15:43.678Z,11.00
2023-01-18T00:18:10.264Z,13.85
2023-01-18T00:20:36.756Z,13.03
2023-01-18T00:23:03.425Z,14.82
2023-01-18T00:25:30.767Z,13.50
2023-01-18T00:27:57.341Z,15.13
2023-01-18T00:30:26.760Z,14.48
2023-01-18T00:32:58.194Z,11.67
2023-01-18T00:35:25.723Z,15.55
2023-01-18T00:37:53.514Z,15.82
2023-01-18T00:40:21.865Z,13.77
2023-01-18T00:42:48.474Z,13.02
2023-01-18T00:45:15.247Z,16.27
2023-01-18T00:47:41.718Z,13.02
2023-01-18T00:50:09.147Z,13.20
2023-01-18T00:52:35.866Z,15.45
2023-01-18T00:55:02.881Z,16.58
2023-01-18T00:57:32.235Z,12.17
2023-01-18T00:59:58.807Z,10.13
2023-01-18T01:02:25.424Z,16.30
2023-01-18T01:04:51.956Z,13.80
2023-01-18T01:07:18.463Z,13.02
2023-01-18T01:09:44.956Z,14.17
2023-01-18T01:12:12.508Z,13.43
2023-01-18T01:14:42.371Z,13.98
2023-01-18T01:17:09.126Z,15.02
2023-01-18T01:19:35.645Z,17.23
2023-01-18T01:22:02.205Z,13.63
2023-01-18T01:24:28.725Z,14.75
2023-01-18T01:26:55.297Z,13.38
2023-01-18T01:29:21.860Z,14.50
2023-01-18T01:31:48.412Z,13.02
2023-01-18T01:34:14.888Z,14.10
2023-01-18T01:36:41.546Z,15.57
2023-01-18T01:39:08.066Z,16.08
2023-01-18T01:41:35.571Z,14.50
2023-01-18T01:44:23.437Z,15.30
2023-01-18T01:47:04.634Z,15.67
2023-01-18T01:49:39.464Z,13.65
2023-01-18T01:52:07.890Z,15.88
2023-01-18T01:54:45.890Z,15.30
2023-01-18T01:57:18.232Z,15.77
2023-01-18T01:59:55.959Z,14.20
2023-01-18T02:02:22.474Z,20.45
2023-01-18T02:04:51.087Z,16.17
2023-01-18T02:07:17.703Z,8.57
2023-01-18T02:09:44.206Z,13.45
2023-01-18T02:12:10.741Z,8.13
2023-01-18T02:14:37.564Z,11.05
2023-01-18T02:17:22.729Z,18.38
2023-01-18T02:20:07.974Z,10.63
2023-01-18T02:22:53.068Z,12.82
2023-01-18T02:25:48.814Z,13.07
2023-01-18T02:28:19.643Z,11.50
2023-01-18T02:30:56.378Z,8.98
2023-01-18T02:33:37.973Z,12.38
2023-01-18T02:36:05.959Z,12.20
2023-01-18T02:38:41.281Z,11.83
2023-01-18T02:41:44.220Z,12.32
2023-01-18T02:44:11.634Z,11.07
2023-01-18T02:46:39.049Z,8.50
2023-01-18T02:49:12.854Z,11.77
2023-01-18T02:51:39.612Z,13.13
2023-01-18T02:54:09.281Z,11.88
2023-01-18T02:56:46.016Z,11.68
2023-01-18T02:59:39.245Z,15.77
2023-01-18T03:02:16.047Z,12.07
2023-01-18T03:04:48.927Z,11.63
2023-01-18T03:07:24.377Z,9.80
2023-01-18T03:09:51.922Z,10.82
2023-01-18T03:12:42.513Z,8.45
2023-01-18T03:15:34.365Z,10.30
2023-01-18T03:18:10.719Z,10.93
2023-01-18T03:20:42.729Z,7.30
2023-01-18T03:23:22.399Z,12.93
2023-01-18T03:25:51.304Z,11.23
2023-01-18T03:28:25.867Z,12.95
2023-01-18T03:30:55.494Z,9.60
2023-01-18T03:33:25.457Z,10.82
2023-01-18T03:35:54.007Z,10.15
2023-01-18T03:38:21.818Z,10.00
2023-01-18T03:40:48.617Z,11.60
2023-01-18T03:43:17.445Z,11.77
2023-01-18T03:45:48.141Z,8.35
2023-01-18T03:48:15.525Z,10.88
2023-01-18T03:50:59.405Z,10.25
2023-01-18T03:53:35.025Z,13.27
2023-01-18T03:56:09.668Z,10.30
2023-01-18T03:58:36.614Z,11.63
2023-01-18T04:01:04.839Z,12.65
2023-01-18T04:03:32.855Z,12.50
2023-01-18T04:06:04.175Z,12.75
2023-01-18T04:08:30.839Z,16.30
2023-01-18T04:10:57.447Z,9.95
2023-01-18T04:13:23.997Z,12.00
2023-01-18T04:15:50.775Z,12.07
2023-01-18T04:18:17.401Z,11.38
2023-01-18T04:20:43.891Z,12.40
2023-01-18T04:23:11.190Z,11.52
2023-01-18T04:25:38.046Z,14.45
2023-01-18T04:28:04.835Z,12.88
2023-01-18T04:30:31.377Z,11.50
2023-01-18T04:32:58.307Z,16.37
2023-01-18T04:35:25.065Z,11.90
2023-01-18T04:37:54.337Z,11.52
2023-01-18T04:40:21.085Z,10.70
2023-01-18T04:42:54.259Z,12.30
2023-01-18T04:45:20.811Z,12.73
2023-01-18T04:47:47.428Z,15.45
2023-01-18T04:50:14.093Z,13.30
2023-01-18T04:52:40.612Z,13.30
2023-01-18T04:55:08.033Z,13.50
2023-01-18T04:57:34.714Z,10.80
2023-01-18T05:00:01.231Z,9.07
2023-01-18T05:02:27.907Z,14.05
2023-01-18T05:04:54.420Z,12.82
2023-01-18T05:07:24.734Z,12.38
2023-01-18T05:09:51.534Z,13.17
2023-01-18T05:12:18.308Z,14.35
2023-01-18T05:14:44.990Z,13.38
2023-01-18T05:17:11.679Z,12.00
2023-01-18T05:19:38.189Z,12.57
2023-01-18T05:22:04.664Z,11.97
2023-01-18T05:24:31.325Z,10.13
2023-01-18T05:26:58.059Z,10.95
2023-01-18T05:29:24.707Z,17.70
2023-01-18T05:31:52.835Z,13.30
2023-01-18T05:34:19.417Z,12.47
2023-01-18T05:36:47.424Z,15.20
2023-01-18T05:39:14.225Z,14.38
2023-01-18T05:41:40.746Z,9.75
2023-01-18T05:44:07.263Z,7.78
2023-01-18T05:46:33.894Z,8.73
2023-01-18T05:49:00.390Z,10.27
2023-01-18T05:51:26.909Z,10.77
2023-01-18T05:53:53.539Z,9.55
2023-01-18T05:56:20.157Z,10.00
2023-01-18T05:58:46.733Z,17.20
2023-01-18T06:01:13.382Z,13.60
2023-01-18T06:03:40.520Z,14.23
2023-01-18T06:06:07.126Z,10.00
2023-01-18T06:08:33.851Z,12.02
2023-01-18T06:11:00.759Z,13.90
2023-01-18T06:13:29.024Z,12.82
2023-01-18T06:15:57.093Z,11.95
2023-01-18T06:18:25.514Z,11.52
2023-01-18T06:21:01.546Z,10.98
2023-01-18T06:23:29.631Z,12.47
2023-01-18T06:25:56.628Z,8.82
2023-01-18T06:28:23.658Z,9.00
2023-01-18T06:30:54.640Z,7.28
2023-01-18T06:33:22.317Z,8.93
2023-01-18T06:35:48.884Z,9.13
2023-01-18T06:38:15.368Z,7.47
2023-01-18T06:40:41.910Z,9.57
2023-01-18T06:43:09.041Z,10.40
2023-01-18T06:45:35.833Z,14.05
2023-01-18T06:48:02.403Z,11.03
2023-01-18T06:50:28.971Z,10.98
2023-01-18T06:52:55.750Z,9.40
2023-01-18T06:55:22.605Z,10.15
2023-01-18T06:57:49.146Z,11.30
2023-01-18T07:00:16.125Z,12.10
2023-01-18T07:02:42.694Z,15.82
2023-01-18T07:05:09.494Z,12.75
2023-01-18T07:07:36.055Z,19.45
2023-01-18T07:10:02.655Z,15.00
2023-01-18T07:12:29.621Z,17.30
2023-01-18T07:14:56.218Z,13.55
2023-01-18T07:17:23.442Z,14.88
2023-01-18T07:19:50.059Z,12.85
2023-01-18T07:22:16.619Z,12.30
2023-01-18T07:24:43.201Z,9.90
2023-01-18T07:27:09.796Z,10.80
2023-01-18T07:29:36.284Z,13.10
2023-01-18T07:32:02.913Z,11.85
2023-01-18T07:34:29.512Z,11.25
2023-01-18T07:36:56.029Z,13.53
2023-01-18T07:39:22.554Z,12.48
2023-01-18T07:41:49.162Z,12.30
2023-01-18T07:44:15.724Z,12.73
2023-01-18T07:46:42.271Z,9.82
2023-01-18T07:49:10.388Z,11.97
2023-01-18T07:51:39.874Z,12.27
2023-01-18T07:54:09.390Z,10.98
2023-01-18T07:56:40.164Z,12.45
2023-01-18T07:59:10.026Z,13.90
2023-01-18T08:01:37.468Z,9.83
2023-01-18T08:04:06.680Z,12.55
2023-01-18T08:06:36.004Z,14.25
2023-01-18T08:09:05.715Z,12.35
2023-01-18T08:11:37.317Z,8.75
2023-01-18T08:14:07.032Z,11.63
2023-01-18T08:16:33.731Z,9.00
2023-01-18T08:19:00.558Z,14.13
2023-01-18T08:21:27.620Z,10.68
2023-01-18T08:23:54.201Z,11.30
2023-01-18T08:26:20.934Z,8.87
2023-01-18T08:28:49.924Z,13.23
2023-01-18T08:31:18.887Z,9.00
2023-01-18T08:33:47.753Z,11.38
2023-01-18T08:36:17.587Z,11.90
2023-01-18T08:38:52.251Z,12.37
2023-01-18T08:41:20.122Z,13.35
2023-01-18T08:43:49.959Z,10.50
2023-01-18T08:46:17.907Z,13.38
2023-01-18T08:48:44.468Z,12.70
2023-01-18T08:51:11.211Z,11.33
2023-01-18T08:53:40.750Z,9.60
2023-01-18T08:56:07.875Z,13.85
2023-01-18T08:58:34.712Z,13.43
2023-01-18T09:01:05.830Z,11.52
2023-01-18T09:03:32.372Z,12.93
2023-01-18T09:06:03.466Z,9.18
2023-01-18T09:08:30.139Z,9.38
2023-01-18T09:11:01.975Z,11.18
2023-01-18T09:13:28.561Z,13.50
2023-01-18T09:16:02.587Z,11.40
2023-01-18T09:18:29.437Z,10.85
2023-01-18T09:20:59.142Z,14.93
2023-01-18T09:23:26.173Z,11.93
2023-01-18T09:26:07.232Z,10.23
2023-01-18T09:28:34.192Z,10.00
2023-01-18T09:31:05.834Z,9.65
2023-01-18T09:33:37.962Z,9.63
2023-01-18T09:36:09.880Z,10.98
2023-01-18T09:38:38.143Z,10.15
2023-01-18T09:41:28.195Z,8.67
2023-01-18T09:43:58.718Z,10.25
2023-01-18T09:46:25.416Z,11.63
2023-01-18T09:49:00.942Z,10.55
2023-01-18T09:51:33.117Z,7.78
2023-01-18T09:54:31.859Z,9.07
2023-01-18T09:57:17.488Z,8.98
2023-01-18T10:00:04.913Z,10.65
2023-01-18T10:02:38.514Z,10.90
2023-01-18T10:05:11.629Z,7.72
2023-01-18T10:08:03.043Z,8.63
2023-01-18T10:10:38.668Z,6.18
2023-01-18T10:13:13.703Z,11.93
2023-01-18T10:15:41.649Z,10.73
2023-01-18T10:18:09.845Z,9.38
2023-01-18T10:21:01.291Z,11.10
2023-01-18T10:23:36.725Z,8.82
2023-01-18T10:26:09.176Z,10.20
2023-01-18T10:28:56.606Z,8.35
2023-01-18T10:31:44.324Z,11.02
2023-01-18T10:34:20.311Z,8.30
2023-01-18T10:36:54.423Z,8.00
2023-01-18T10:39:32.510Z,9.93
2023-01-18T10:42:06.013Z,8.02
2023-01-18T10:44:33.295Z,10.05
2023-01-18T10:47:01.037Z,10.27
2023-01-18T10:49:41.982Z,8.52
2023-01-18T10:52:25.709Z,8.55
2023-01-18T10:55:04.347Z,10.98
2023-01-18T10:57:35.025Z,9.32
2023-01-18T11:00:02.925Z,8.73
2023-01-18T11:02:36.125Z,7.53
2023-01-18T11:05:22.394Z,10.10
2023-01-18T11:08:28.645Z,11.00
2023-01-18T11:11:08.817Z,9.57
2023-01-18T11:13:44.767Z,13.53
2023-01-18T11:16:20.977Z,10.73
2023-01-18T11:18:58.726Z,9.90
2023-01-18T11:21:27.849Z,9.05
2023-01-18T11:23:54.434Z,12.40
2023-01-18T11:26:23.133Z,11.70
2023-01-18T11:28:49.787Z,8.10
2023-01-18T11:31:22.085Z,9.10
2023-01-18T11:34:01.506Z,8.75
2023-01-18T11:36:44.171Z,9.50
2023-01-18T11:39:27.546Z,8.50
2023-01-18T11:42:19.979Z,10.90
2023-01-18T11:44:52.409Z,8.52
2023-01-18T11:47:29.630Z,11.13
2023-01-18T11:50:25.325Z,10.10
2023-01-18T11:52:56.826Z,11.17
2023-01-18T11:55:35.054Z,11.73
2023-01-18T11:58:02.292Z,13.43
2023-01-18T12:00:43.284Z,8.07
2023-01-18T12:03:24.871Z,10.45
2023-01-18T12:05:57.887Z,10.40
2023-01-18T12:08:31.706Z,12.07
2023-01-18T12:11:01.162Z,11.48
2023-01-18T12:13:47.699Z,10.73
2023-01-18T12:16:33.195Z,11.63
2023-01-18T12:19:31.209Z,9.27
2023-01-18T12:22:28.322Z,9.80
2023-01-18T12:25:01.689Z,10.57
2023-01-18T12:27:33.936Z,10.23
2023-01-18T12:30:17.507Z,8.77
2023-01-18T12:33:05.957Z,10.70
2023-01-18T12:35:50.625Z,9.50
2023-01-18T12:38:27.712Z,13.70
2023-01-18T12:41:24.882Z,9.13
2023-01-18T12:44:03.440Z,8.48
2023-01-18T12:46:52.940Z,9.97
2023-01-18T12:49:21.571Z,10.57
2023-01-18T12:52:00.767Z,10.85
2023-01-18T12:54:38.489Z,10.13
2023-01-18T12:57:05.500Z,10.57
2023-01-18T13:00:10.463Z,9.80
2023-01-18T13:02:37.010Z,11.48
2023-01-18T13:05:15.691Z,14.60
2023-01-18T13:07:48.309Z,10.27
2023-01-18T13:10:27.235Z,9.13
2023-01-18T13:12:56.046Z,14.63
2023-01-18T13:15:39.957Z,12.05
2023-01-18T13:18:15.824Z,8.25
2023-01-18T13:21:21.057Z,9.18
2023-01-18T13:23:56.042Z,7.40
2023-01-18T13:26:26.659Z,10.43
2023-01-18T13:29:15.572Z,9.30
2023-01-18T13:31:43.697Z,12.90
2023-01-18T13:34:27.194Z,9.45
2023-01-18T13:37:12.714Z,9.50
2023-01-18T13:39:47.448Z,8.33
2023-01-18T13:42:14.185Z,9.27
2023-01-18T13:44:44.542Z,8.68
2023-01-18T13:47:35.855Z,10.52
2023-01-18T13:50:02.566Z,8.20
2023-01-18T13:52:33.562Z,7.23
2023-01-18T13:55:03.114Z,14.18
2023-01-18T13:57:31.546Z,9.73
2023-01-18T13:59:58.893Z,10.68
2023-01-18T14:02:38.249Z,11.38
2023-01-18T14:05:19.079Z,12.73
2023-01-18T14:07:49.047Z,13.00
2023-01-18T14:10:37.611Z,10.82
2023-01-18T14:13:13.936Z,8.57
2023-01-18T14:15:43.264Z,8.15
2023-01-18T14:18:26.891Z,9.17
2023-01-18T14:21:08.313Z,10.48
2023-01-18T14:24:08.924Z,13.85
2023-01-18T14:26:39.732Z,9.95
2023-01-18T14:29:11.965Z,10.07
2023-01-18T14:31:42.653Z,9.33
2023-01-18T14:34:29.425Z,10.13
2023-01-18T14:36:59.749Z,17.05
2023-01-18T14:39:26.308Z,11.27
2023-01-18T14:42:04.840Z,10.20
2023-01-18T14:44:57.458Z,8.40
2023-01-18T14:47:32.753Z,8.73
2023-01-18T14:50:03.046Z,11.15
2023-01-18T14:52:33.877Z,14.93
2023-01-18T14:55:00.502Z,11.20
2023-01-18T14:57:27.116Z,11.40
2023-01-18T14:59:56.728Z,9.07
2023-01-18T15:02:25.453Z,11.10
2023-01-18T15:04:51.953Z,10.32
2023-01-18T15:07:29.709Z,12.93
2023-01-18T15:09:57.795Z,11.70
2023-01-18T15:12:30.455Z,9.25
2023-01-18T15:15:05.860Z,12.10
2023-01-18T15:17:33.480Z,9.70
2023-01-18T15:20:06.553Z,9.75
2023-01-18T15:22:36.574Z,11.60
2023-01-18T15:25:04.038Z,13.07
2023-01-18T15:27:34.010Z,12.27
2023-01-18T15:30:02.365Z,9.85
2023-01-18T15:32:29.937Z,10.00
2023-01-18T15:34:58.483Z,10.97
2023-01-18T15:37:28.160Z,15.50
2023-01-18T15:39:59.022Z,12.45
2023-01-18T15:42:38.929Z,13.77
2023-01-18T15:45:16.825Z,11.85
2023-01-18T15:47:48.671Z,14.43
2023-01-18T15:50:23.737Z,10.70
2023-01-18T15:53:02.436Z,14.25
2023-01-18T15:55:45.516Z,14.98
2023-01-18T15:58:36.477Z,14.40
2023-01-18T16:01:15.032Z,16.73
2023-01-18T16:04:03.279Z,11.93
2023-01-18T16:06:32.821Z,12.65
2023-01-18T16:08:59.328Z,13.13
2023-01-18T16:11:27.115Z,12.73
2023-01-18T16:13:59.439Z,18.17
2023-01-18T16:16:27.548Z,15.60
2023-01-18T16:19:11.083Z,13.15
2023-01-18T16:21:47.140Z,15.75
2023-01-18T16:24:26.074Z,16.70
2023-01-18T16:26:54.102Z,14.50
2023-01-18T16:29:20.843Z,14.82
2023-01-18T16:31:47.393Z,14.68
2023-01-18T16:34:26.465Z,11.10
2023-01-18T16:36:53.629Z,16.27
2023-01-18T16:39:20.779Z,18.20
2023-01-18T16:41:53.117Z,16.70
2023-01-18T16:44:21.007Z,18.10
2023-01-18T16:46:48.325Z,16.10
2023-01-18T16:49:15.073Z,15.93
2023-01-18T16:51:41.904Z,18.63
2023-01-18T16:54:08.399Z,17.02
2023-01-18T16:56:35.000Z,22.00
2023-01-18T16:59:11.874Z,16.88
2023-01-18T17:01:38.857Z,21.35
2023-01-18T17:04:05.455Z,22.77
2023-01-18T17:06:32.095Z,20.80
2023-01-18T17:08:58.659Z,18.10
2023-01-18T17:11:25.137Z,15.40
2023-01-18T17:13:51.652Z,23.73
2023-01-18T17:16:19.611Z,17.13
2023-01-18T17:18:46.633Z,17.55
2023-01-18T17:21:13.494Z,18.42
2023-01-18T17:23:40.184Z,19.30
2023-01-18T17:26:08.024Z,18.05
2023-01-18T17:28:34.556Z,18.10
2023-01-18T17:31:01.228Z,18.33
2023-01-18T17:33:27.777Z,15.73
2023-01-18T17:35:55.138Z,18.38
2023-01-18T17:38:25.630Z,26.10
2023-01-18T17:40:53.849Z,23.80
2023-01-18T17:43:33.253Z,18.17
2023-01-18T17:46:05.835Z,19.45
2023-01-18T17:48:32.596Z,19.80
2023-01-18T17:50:59.133Z,21.33
2023-01-18T17:53:25.800Z,23.07
2023-01-18T17:55:52.299Z,21.38
2023-01-18T17:58:18.908Z,16.30
2023-01-18T18:00:45.422Z,24.85
2023-01-18T18:03:12.101Z,17.63
2023-01-18T18:05:38.631Z,20.70
2023-01-18T18:08:05.377Z,21.45
2023-01-18T18:10:31.961Z,19.65
2023-01-18T18:12:58.809Z,22.17
2023-01-18T18:15:26.177Z,18.63
2023-01-18T18:17:52.672Z,18.63
2023-01-18T18:20:21.950Z,17.15
2023-01-18T18:22:49.267Z,20.30
2023-01-18T18:25:15.861Z,17.80
2023-01-18T18:27:46.804Z,18.60
2023-01-18T18:30:15.015Z,26.13
2023-01-18T18:32:41.560Z,18.20
2023-01-18T18:35:23.845Z,19.42
2023-01-18T18:37:51.091Z,20.15
2023-01-18T18:40:17.951Z,16.02
2023-01-18T18:42:49.899Z,15.43
2023-01-18T18:45:27.311Z,19.00
2023-01-18T18:47:53.886Z,26.60
2023-01-18T18:50:20.486Z,19.23
2023-01-18T18:52:47.062Z,19.85
2023-01-18T18:55:13.874Z,20.70
2023-01-18T18:57:40.429Z,18.88
2023-01-18T19:00:07.831Z,22.92
2023-01-18T19:02:34.794Z,23.95
2023-01-18T19:05:01.480Z,19.20
2023-01-18T19:07:28.293Z,17.20
2023-01-18T19:09:54.824Z,22.25
2023-01-18T19:12:21.311Z,22.33
2023-01-18T19:14:48.347Z,24.38
2023-01-18T19:17:29.032Z,24.80
2023-01-18T19:19:57.353Z,20.80
2023-01-18T19:22:23.930Z,23.15
2023-01-18T19:24:50.697Z,23.73
2023-01-18T19:27:17.384Z,19.65
2023-01-18T19:29:43.985Z,22.20
2023-01-18T19:32:10.535Z,24.50
2023-01-18T19:34:37.436Z,18.33
2023-01-18T19:37:04.676Z,22.75
2023-01-18T19:39:31.166Z,25.75
2023-01-18T19:41:57.814Z,21.33
2023-01-18T19:44:24.886Z,26.57
2023-01-18T19:46:51.589Z,17.50
2023-01-18T19:49:18.318Z,23.15
2023-01-18T19:51:45.637Z,23.65
2023-01-18T19:54:12.316Z,21.92
2023-01-18T19:56:38.953Z,20.07
2023-01-18T19:59:05.514Z,25.83
2023-01-18T20:01:36.878Z,22.13
2023-01-18T20:04:06.367Z,22.80
2023-01-18T20:06:34.056Z,22.52
2023-01-18T20:09:00.664Z,19.83
2023-01-18T20:11:27.796Z,21.27
2023-01-18T20:13:54.435Z,22.67
2023-01-18T20:16:21.226Z,23.80
2023-01-18T20:18:48.445Z,21.02
2023-01-18T20:21:16.403Z,26.40
2023-01-18T20:23:44.018Z,18.90
2023-01-18T20:26:18.041Z,19.95
2023-01-18T20:28:48.554Z,21.35
2023-01-18T20:31:15.219Z,26.25
2023-01-18T20:33:41.857Z,19.60
2023-01-18T20:36:09.052Z,25.38
2023-01-18T20:38:35.619Z,21.77
2023-01-18T20:41:02.580Z,20.92
2023-01-18T20:43:29.173Z,29.92
2023-01-18T20:46:00.105Z,30.20
2023-01-18T20:48:27.550Z,17.45
2023-01-18T20:50:54.147Z,22.80
2023-01-18T20:53:20.721Z,20.45
2023-01-18T20:55:47.328Z,21.88
2023-01-18T20:58:13.890Z,33.17
2023-01-18T21:00:40.519Z,21.30
2023-01-18T21:03:07.220Z,28.77
2023-01-18T21:05:33.800Z,26.23
2023-01-18T21:08:00.738Z,19.85
2023-01-18T21:10:27.847Z,19.20
2023-01-18T21:12:54.327Z,27.50
2023-01-18T21:15:21.859Z,23.17
2023-01-18T21:17:48.497Z,22.50
2023-01-18T21:20:15.368Z,22.20
2023-01-18T21:22:41.898Z,21.47
2023-01-18T21:25:09.585Z,27.58
2023-01-18T21:27:36.068Z,26.20
2023-01-18T21:30:02.564Z,25.17
2023-01-18T21:32:29.306Z,26.00
2023-01-18T21:34:55.772Z,24.63
2023-01-18T21:37:22.281Z,29.60
2023-01-18T21:39:48.927Z,24.67
2023-01-18T21:42:15.543Z,20.52
2023-01-18T21:44:42.042Z,21.75
2023-01-18T21:47:09.660Z,27.00
2023-01-18T21:49:57.748Z,25.25
2023-01-18T21:52:22.709Z,20.70
2023-01-18T21:54:49.155Z,22.27
2023-01-18T21:57:15.679Z,17.88
2023-01-18T21:59:42.659Z,20.70
2023-01-18T22:02:09.275Z,21.00
2023-01-18T22:04:35.811Z,20.50
2023-01-18T22:07:02.425Z,22.33
2023-01-18T22:09:30.375Z,17.88
2023-01-18T22:11:57.546Z,19.97
2023-01-18T22:14:25.093Z,17.30
2023-01-18T22:16:52.372Z,17.35
2023-01-18T22:19:19.026Z,17.30
2023-01-18T22:21:45.961Z,17.13
2023-01-18T22:24:13.288Z,16.67
2023-01-18T22:26:40.419Z,16.73
2023-01-18T22:29:07.369Z,22.08
2023-01-18T22:31:33.954Z,14.98
2023-01-18T22:34:00.631Z,14.93
2023-01-18T22:36:27.662Z,17.10
2023-01-18T22:38:54.646Z,17.85
2023-01-18T22:41:27.122Z,16.40
2023-01-18T22:43:54.924Z,15.40
2023-01-18T22:46:23.527Z,16.15
2023-01-18T22:48:50.131Z,16.33
2023-01-18T22:51:19.428Z,15.55
2023-01-18T22:53:46.015Z,17.65
2023-01-18T22:56:21.873Z,17.88
2023-01-18T22:58:49.616Z,18.00
2023-01-18T23:01:25.243Z,19.47
2023-01-18T23:03:53.142Z,15.88
2023-01-18T23:06:20.496Z,17.30
2023-01-18T23:08:47.940Z,18.95
2023-01-18T23:11:23.456Z,17.27
2023-01-18T23:13:52.911Z,21.10
2023-01-18T23:16:19.485Z,12.70
2023-01-18T23:18:46.010Z,16.70
2023-01-18T23:21:12.597Z,14.38
2023-01-18T23:23:39.834Z,16.42
2023-01-18T23:26:06.428Z,15.33
2023-01-18T23:28:32.964Z,17.92
2023-01-18T23:30:59.533Z,16.05
2023-01-18T23:33:26.048Z,16.08
2023-01-18T23:35:52.603Z,14.48
2023-01-18T23:38:19.121Z,18.97
2023-01-18T23:40:45.673Z,15.02
2023-01-18T23:43:12.211Z,15.75
2023-01-18T23:45:38.864Z,11.95
2023-01-18T23:48:12.842Z,14.63
2023-01-18T23:50:39.442Z,16.27
2023-01-18T23:53:05.970Z,16.35
2023-01-18T23:55:32.495Z,18.75
2023-01-18T23:57:59.231Z,17.77
